sensor_id;sensor_type;location;lat;lon;timestamp;P1;durP1;ratioP1;P2;durP2;ratioP2
75246;SDS011;63844;50.042;19.224;2023-05-20T00:01:22;19.60;;;9.60;;
75246;SDS011;63844;50.042;19.224;2023-05-20T00:03:48;20.60;;;10.10;;
75246;SDS011;63844;50.042;19.224;2023-05-20T00:06:15;20.40;;;10.30;;
75246;SDS011;63844;50.042;19.224;2023-05-20T00:08:41;22.20;;;10.70;;
75246;SDS011;63844;50.042;19.224;2023-05-20T00:11:08;21.00;;;10.50;;
75246;SDS011;63844;50.042;19.224;2023-05-20T00:13:34;21.30;;;10.10;;
75246;SDS011;63844;50.042;19.224;2023-05-20T00:16:01;19.10;;;9.70;;
75246;SDS011;63844;50.042;19.224;2023-05-20T00:18:27;20.90;;;11.10;;
75246;SDS011;63844;50.042;19.224;2023-05-20T00:20:54;23.40;;;10.70;;
75246;SDS011;63844;50.042;19.224;2023-05-20T00:23:20;22.80;;;10.20;;
75246;SDS011;63844;50.042;19.224;2023-05-20T00:25:47;23.10;;;11.30;;
75246;SDS011;63844;50.042;19.224;2023-05-20T00:28:13;22.80;;;10.70;;
75246;SDS011;63844;50.042;19.224;2023-05-20T00:30:39;21.70;;;9.30;;
75246;SDS011;63844;50.042;19.224;2023-05-20T00:33:09;22.20;;;9.50;;
75246;SDS011;63844;50.042;19.224;2023-05-20T00:35:35;24.60;;;11.60;;
75246;SDS011;63844;50.042;19.224;2023-05-20T00:38:02;25.00;;;12.00;;
75246;SDS011;63844;50.042;19.224;2023-05-20T00:40:28;20.90;;;9.70;;
75246;SDS011;63844;50.042;19.224;2023-05-20T00:42:54;20.80;;;9.70;;
75246;SDS011;63844;50.042;19.224;2023-05-20T00:45:21;19.90;;;9.60;;
75246;SDS011;63844;50.042;19.224;2023-05-20T00:50:15;20.80;;;9.80;;
75246;SDS011;63844;50.042;19.224;2023-05-20T00:52:42;19.90;;;9.20;;
75246;SDS011;63844;50.042;19.224;2023-05-20T00:55:10;20.90;;;10.00;;
75246;SDS011;63844;50.042;19.224;2023-05-20T00:57:37;20.40;;;9.20;;
75246;SDS011;63844;50.042;19.224;2023-05-20T01:00:04;21.30;;;10.40;;
75246;SDS011;63844;50.042;19.224;2023-05-20T01:02:33;22.50;;;10.30;;
75246;SDS011;63844;50.042;19.224;2023-05-20T01:07:26;22.40;;;9.60;;
75246;SDS011;63844;50.042;19.224;2023-05-20T01:09:52;24.30;;;11.00;;
75246;SDS011;63844;50.042;19.224;2023-05-20T01:12:22;22.80;;;10.70;;
75246;SDS011;63844;50.042;19.224;2023-05-20T01:14:58;19.60;;;8.70;;
75246;SDS011;63844;50.042;19.224;2023-05-20T01:17:30;24.60;;;11.00;;
75246;SDS011;63844;50.042;19.224;2023-05-20T01:19:58;19.60;;;8.60;;
75246;SDS011;63844;50.042;19.224;2023-05-20T01:22:26;25.80;;;11.30;;
75246;SDS011;63844;50.042;19.224;2023-05-20T01:24:56;32.20;;;12.80;;
75246;SDS011;63844;50.042;19.224;2023-05-20T01:27:23;26.80;;;11.80;;
75246;SDS011;63844;50.042;19.224;2023-05-20T01:29:50;24.70;;;10.50;;
75246;SDS011;63844;50.042;19.224;2023-05-20T01:32:30;22.50;;;10.60;;
75246;SDS011;63844;50.042;19.224;2023-05-20T01:34:59;17.90;;;8.40;;
75246;SDS011;63844;50.042;19.224;2023-05-20T01:37:26;23.50;;;10.70;;
75246;SDS011;63844;50.042;19.224;2023-05-20T01:39:54;22.50;;;10.20;;
75246;SDS011;63844;50.042;19.224;2023-05-20T01:42:22;24.60;;;10.60;;
75246;SDS011;63844;50.042;19.224;2023-05-20T01:44:50;26.20;;;10.80;;
75246;SDS011;63844;50.042;19.224;2023-05-20T01:47:17;24.10;;;10.20;;
75246;SDS011;63844;50.042;19.224;2023-05-20T01:49:43;29.20;;;12.50;;
75246;SDS011;63844;50.042;19.224;2023-05-20T01:52:11;27.50;;;11.70;;
75246;SDS011;63844;50.042;19.224;2023-05-20T01:54:37;28.70;;;11.90;;
75246;SDS011;63844;50.042;19.224;2023-05-20T01:57:04;28.80;;;12.40;;
75246;SDS011;63844;50.042;19.224;2023-05-20T02:01:57;27.10;;;10.30;;
75246;SDS011;63844;50.042;19.224;2023-05-20T02:04:23;25.70;;;10.80;;
75246;SDS011;63844;50.042;19.224;2023-05-20T02:06:50;27.30;;;11.10;;
75246;SDS011;63844;50.042;19.224;2023-05-20T02:09:17;25.50;;;11.60;;
75246;SDS011;63844;50.042;19.224;2023-05-20T02:11:43;22.00;;;9.60;;
75246;SDS011;63844;50.042;19.224;2023-05-20T02:14:10;25.20;;;10.90;;
75246;SDS011;63844;50.042;19.224;2023-05-20T02:16:36;25.30;;;11.50;;
75246;SDS011;63844;50.042;19.224;2023-05-20T02:19:03;22.30;;;9.00;;
75246;SDS011;63844;50.042;19.224;2023-05-20T02:21:29;20.00;;;9.80;;
75246;SDS011;63844;50.042;19.224;2023-05-20T02:23:56;21.10;;;9.20;;
75246;SDS011;63844;50.042;19.224;2023-05-20T02:26:22;20.20;;;9.80;;
75246;SDS011;63844;50.042;19.224;2023-05-20T02:28:50;21.80;;;9.80;;
75246;SDS011;63844;50.042;19.224;2023-05-20T02:31:16;20.60;;;9.60;;
75246;SDS011;63844;50.042;19.224;2023-05-20T02:33:43;18.50;;;9.50;;
75246;SDS011;63844;50.042;19.224;2023-05-20T02:36:10;20.40;;;9.50;;
75246;SDS011;63844;50.042;19.224;2023-05-20T02:38:36;16.80;;;8.10;;
75246;SDS011;63844;50.042;19.224;2023-05-20T02:41:03;18.90;;;9.10;;
75246;SDS011;63844;50.042;19.224;2023-05-20T02:43:30;13.70;;;7.70;;
75246;SDS011;63844;50.042;19.224;2023-05-20T02:45:57;12.30;;;6.90;;
75246;SDS011;63844;50.042;19.224;2023-05-20T02:48:23;16.40;;;8.30;;
75246;SDS011;63844;50.042;19.224;2023-05-20T02:50:50;16.00;;;7.90;;
75246;SDS011;63844;50.042;19.224;2023-05-20T02:53:18;20.20;;;9.60;;
75246;SDS011;63844;50.042;19.224;2023-05-20T02:55:44;20.80;;;8.00;;
75246;SDS011;63844;50.042;19.224;2023-05-20T02:58:14;19.80;;;9.00;;
75246;SDS011;63844;50.042;19.224;2023-05-20T03:00:42;17.80;;;8.70;;
75246;SDS011;63844;50.042;19.224;2023-05-20T03:03:08;20.90;;;9.70;;
75246;SDS011;63844;50.042;19.224;2023-05-20T03:05:36;22.10;;;9.80;;
75246;SDS011;63844;50.042;19.224;2023-05-20T03:08:07;19.00;;;9.40;;
75246;SDS011;63844;50.042;19.224;2023-05-20T03:10:40;21.70;;;10.30;;
75246;SDS011;63844;50.042;19.224;2023-05-20T03:13:07;19.60;;;9.60;;
75246;SDS011;63844;50.042;19.224;2023-05-20T03:15:35;15.20;;;7.80;;
75246;SDS011;63844;50.042;19.224;2023-05-20T03:18:02;18.90;;;9.20;;
75246;SDS011;63844;50.042;19.224;2023-05-20T03:20:29;21.10;;;9.70;;
75246;SDS011;63844;50.042;19.224;2023-05-20T03:22:55;23.20;;;10.30;;
75246;SDS011;63844;50.042;19.224;2023-05-20T03:25:23;18.70;;;8.80;;
75246;SDS011;63844;50.042;19.224;2023-05-20T03:27:50;17.70;;;8.60;;
75246;SDS011;63844;50.042;19.224;2023-05-20T03:30:16;16.20;;;7.80;;
75246;SDS011;63844;50.042;19.224;2023-05-20T03:35:09;16.30;;;8.10;;
75246;SDS011;63844;50.042;19.224;2023-05-20T03:37:36;16.80;;;8.50;;
75246;SDS011;63844;50.042;19.224;2023-05-20T03:40:02;19.80;;;9.20;;
75246;SDS011;63844;50.042;19.224;2023-05-20T03:42:32;17.20;;;9.50;;
75246;SDS011;63844;50.042;19.224;2023-05-20T03:44:59;15.70;;;8.70;;
75246;SDS011;63844;50.042;19.224;2023-05-20T03:47:26;16.60;;;8.30;;
75246;SDS011;63844;50.042;19.224;2023-05-20T03:49:52;15.90;;;8.00;;
75246;SDS011;63844;50.042;19.224;2023-05-20T03:52:19;21.20;;;9.90;;
75246;SDS011;63844;50.042;19.224;2023-05-20T03:57:12;13.80;;;6.90;;
75246;SDS011;63844;50.042;19.224;2023-05-20T03:59:39;16.70;;;7.70;;
75246;SDS011;63844;50.042;19.224;2023-05-20T04:02:05;23.10;;;10.30;;
75246;SDS011;63844;50.042;19.224;2023-05-20T04:04:32;22.10;;;10.70;;
75246;SDS011;63844;50.042;19.224;2023-05-20T04:06:59;22.30;;;11.40;;
75246;SDS011;63844;50.042;19.224;2023-05-20T04:09:31;19.80;;;9.40;;
75246;SDS011;63844;50.042;19.224;2023-05-20T04:11:58;20.10;;;9.70;;
75246;SDS011;63844;50.042;19.224;2023-05-20T04:14:24;18.10;;;8.70;;
75246;SDS011;63844;50.042;19.224;2023-05-20T04:16:51;18.20;;;9.20;;
75246;SDS011;63844;50.042;19.224;2023-05-20T04:19:17;20.10;;;9.80;;
75246;SDS011;63844;50.042;19.224;2023-05-20T04:21:44;18.00;;;9.60;;
75246;SDS011;63844;50.042;19.224;2023-05-20T04:24:11;16.80;;;8.30;;
75246;SDS011;63844;50.042;19.224;2023-05-20T04:26:37;16.60;;;8.10;;
75246;SDS011;63844;50.042;19.224;2023-05-20T04:29:04;18.40;;;9.00;;
75246;SDS011;63844;50.042;19.224;2023-05-20T04:33:57;19.50;;;9.90;;
75246;SDS011;63844;50.042;19.224;2023-05-20T04:36:24;17.50;;;9.00;;
75246;SDS011;63844;50.042;19.224;2023-05-20T04:38:54;17.60;;;9.40;;
75246;SDS011;63844;50.042;19.224;2023-05-20T04:41:21;21.90;;;10.40;;
75246;SDS011;63844;50.042;19.224;2023-05-20T04:43:47;22.20;;;10.00;;
75246;SDS011;63844;50.042;19.224;2023-05-20T04:46:15;20.10;;;9.00;;
75246;SDS011;63844;50.042;19.224;2023-05-20T04:48:41;21.10;;;9.30;;
75246;SDS011;63844;50.042;19.224;2023-05-20T04:51:13;22.40;;;10.80;;
75246;SDS011;63844;50.042;19.224;2023-05-20T04:53:39;26.70;;;12.50;;
75246;SDS011;63844;50.042;19.224;2023-05-20T04:56:05;29.20;;;12.20;;
75246;SDS011;63844;50.042;19.224;2023-05-20T04:58:33;25.80;;;11.50;;
75246;SDS011;63844;50.042;19.224;2023-05-20T05:00:59;28.50;;;12.50;;
75246;SDS011;63844;50.042;19.224;2023-05-20T05:03:26;27.20;;;12.80;;
75246;SDS011;63844;50.042;19.224;2023-05-20T05:05:56;26.30;;;12.00;;
75246;SDS011;63844;50.042;19.224;2023-05-20T05:08:23;27.30;;;12.70;;
75246;SDS011;63844;50.042;19.224;2023-05-20T05:10:51;30.30;;;14.60;;
75246;SDS011;63844;50.042;19.224;2023-05-20T05:13:18;25.50;;;13.00;;
75246;SDS011;63844;50.042;19.224;2023-05-20T05:15:44;26.70;;;13.70;;
75246;SDS011;63844;50.042;19.224;2023-05-20T05:18:10;26.00;;;12.00;;
75246;SDS011;63844;50.042;19.224;2023-05-20T05:20:37;22.10;;;11.20;;
75246;SDS011;63844;50.042;19.224;2023-05-20T05:25:30;27.40;;;11.70;;
75246;SDS011;63844;50.042;19.224;2023-05-20T05:27:56;23.00;;;10.30;;
75246;SDS011;63844;50.042;19.224;2023-05-20T05:30:23;25.30;;;11.20;;
75246;SDS011;63844;50.042;19.224;2023-05-20T05:32:49;20.60;;;10.60;;
75246;SDS011;63844;50.042;19.224;2023-05-20T05:37:42;25.50;;;11.40;;
75246;SDS011;63844;50.042;19.224;2023-05-20T05:40:09;25.10;;;11.80;;
75246;SDS011;63844;50.042;19.224;2023-05-20T05:42:36;25.90;;;10.80;;
75246;SDS011;63844;50.042;19.224;2023-05-20T05:45:02;25.70;;;11.90;;
75246;SDS011;63844;50.042;19.224;2023-05-20T05:47:29;19.40;;;10.40;;
75246;SDS011;63844;50.042;19.224;2023-05-20T05:49:57;24.40;;;10.30;;
75246;SDS011;63844;50.042;19.224;2023-05-20T05:52:25;22.60;;;10.60;;
75246;SDS011;63844;50.042;19.224;2023-05-20T05:54:52;21.80;;;9.90;;
75246;SDS011;63844;50.042;19.224;2023-05-20T05:57:19;22.10;;;10.30;;
75246;SDS011;63844;50.042;19.224;2023-05-20T06:02:12;20.10;;;9.50;;
75246;SDS011;63844;50.042;19.224;2023-05-20T06:04:39;21.40;;;10.90;;
75246;SDS011;63844;50.042;19.224;2023-05-20T06:07:06;19.80;;;10.20;;
75246;SDS011;63844;50.042;19.224;2023-05-20T06:09:33;17.00;;;8.30;;
75246;SDS011;63844;50.042;19.224;2023-05-20T06:14:25;21.00;;;11.20;;
75246;SDS011;63844;50.042;19.224;2023-05-20T06:16:52;26.10;;;12.00;;
75246;SDS011;63844;50.042;19.224;2023-05-20T06:19:18;25.60;;;12.70;;
75246;SDS011;63844;50.042;19.224;2023-05-20T06:21:45;27.90;;;13.70;;
75246;SDS011;63844;50.042;19.224;2023-05-20T06:24:11;21.30;;;10.50;;
75246;SDS011;63844;50.042;19.224;2023-05-20T06:26:38;17.00;;;9.10;;
75246;SDS011;63844;50.042;19.224;2023-05-20T06:29:04;18.10;;;9.20;;
75246;SDS011;63844;50.042;19.224;2023-05-20T06:31:30;14.60;;;7.80;;
75246;SDS011;63844;50.042;19.224;2023-05-20T06:33:57;17.70;;;10.00;;
75246;SDS011;63844;50.042;19.224;2023-05-20T06:36:23;19.30;;;10.90;;
75246;SDS011;63844;50.042;19.224;2023-05-20T06:38:50;20.50;;;11.50;;
75246;SDS011;63844;50.042;19.224;2023-05-20T06:41:16;22.90;;;12.00;;
75246;SDS011;63844;50.042;19.224;2023-05-20T06:43:42;21.40;;;12.30;;
75246;SDS011;63844;50.042;19.224;2023-05-20T06:46:09;24.90;;;12.50;;
75246;SDS011;63844;50.042;19.224;2023-05-20T06:51:02;14.40;;;8.20;;
75246;SDS011;63844;50.042;19.224;2023-05-20T06:53:31;19.20;;;9.60;;
75246;SDS011;63844;50.042;19.224;2023-05-20T06:55:58;17.50;;;9.60;;
75246;SDS011;63844;50.042;19.224;2023-05-20T06:58:24;19.10;;;10.60;;
75246;SDS011;63844;50.042;19.224;2023-05-20T07:00:51;24.80;;;12.30;;
75246;SDS011;63844;50.042;19.224;2023-05-20T07:03:17;20.10;;;11.40;;
75246;SDS011;63844;50.042;19.224;2023-05-20T07:05:44;15.60;;;9.10;;
75246;SDS011;63844;50.042;19.224;2023-05-20T07:10:37;17.70;;;9.10;;
75246;SDS011;63844;50.042;19.224;2023-05-20T07:15:29;13.00;;;7.30;;
75246;SDS011;63844;50.042;19.224;2023-05-20T07:17:56;18.10;;;10.10;;
75246;SDS011;63844;50.042;19.224;2023-05-20T07:20:22;12.80;;;7.50;;
75246;SDS011;63844;50.042;19.224;2023-05-20T07:22:49;16.10;;;9.10;;
75246;SDS011;63844;50.042;19.224;2023-05-20T07:25:16;15.60;;;8.90;;
75246;SDS011;63844;50.042;19.224;2023-05-20T07:30:09;19.70;;;8.40;;
75246;SDS011;63844;50.042;19.224;2023-05-20T07:32:36;13.10;;;8.40;;
75246;SDS011;63844;50.042;19.224;2023-05-20T07:35:02;12.40;;;7.80;;
75246;SDS011;63844;50.042;19.224;2023-05-20T07:37:29;16.70;;;7.50;;
75246;SDS011;63844;50.042;19.224;2023-05-20T07:39:55;17.00;;;8.50;;
75246;SDS011;63844;50.042;19.224;2023-05-20T07:44:48;19.30;;;8.60;;
75246;SDS011;63844;50.042;19.224;2023-05-20T07:49:41;14.30;;;7.80;;
75246;SDS011;63844;50.042;19.224;2023-05-20T07:52:09;13.40;;;8.20;;
75246;SDS011;63844;50.042;19.224;2023-05-20T07:54:35;17.90;;;10.00;;
75246;SDS011;63844;50.042;19.224;2023-05-20T07:57:02;17.20;;;9.60;;
75246;SDS011;63844;50.042;19.224;2023-05-20T07:59:28;16.90;;;10.00;;
75246;SDS011;63844;50.042;19.224;2023-05-20T08:01:55;19.10;;;10.40;;
75246;SDS011;63844;50.042;19.224;2023-05-20T08:04:22;17.90;;;9.60;;
75246;SDS011;63844;50.042;19.224;2023-05-20T08:06:48;19.10;;;10.40;;
75246;SDS011;63844;50.042;19.224;2023-05-20T08:09:15;15.90;;;9.20;;
75246;SDS011;63844;50.042;19.224;2023-05-20T08:11:42;19.20;;;10.80;;
75246;SDS011;63844;50.042;19.224;2023-05-20T08:16:35;15.50;;;9.40;;
75246;SDS011;63844;50.042;19.224;2023-05-20T08:19:01;16.60;;;8.80;;
75246;SDS011;63844;50.042;19.224;2023-05-20T08:21:28;21.60;;;9.70;;
75246;SDS011;63844;50.042;19.224;2023-05-20T08:26:21;16.10;;;9.00;;
75246;SDS011;63844;50.042;19.224;2023-05-20T08:28:47;12.10;;;7.50;;
75246;SDS011;63844;50.042;19.224;2023-05-20T08:31:14;11.60;;;7.30;;
75246;SDS011;63844;50.042;19.224;2023-05-20T08:36:06;14.70;;;8.00;;
75246;SDS011;63844;50.042;19.224;2023-05-20T08:38:33;12.10;;;7.40;;
75246;SDS011;63844;50.042;19.224;2023-05-20T08:43:26;15.00;;;7.70;;
75246;SDS011;63844;50.042;19.224;2023-05-20T08:45:53;9.30;;;5.90;;
75246;SDS011;63844;50.042;19.224;2023-05-20T08:48:21;11.50;;;7.10;;
75246;SDS011;63844;50.042;19.224;2023-05-20T08:50:51;16.40;;;10.70;;
75246;SDS011;63844;50.042;19.224;2023-05-20T08:53:19;11.90;;;7.50;;
75246;SDS011;63844;50.042;19.224;2023-05-20T08:55:51;16.30;;;9.70;;
75246;SDS011;63844;50.042;19.224;2023-05-20T09:00:47;16.40;;;9.40;;
75246;SDS011;63844;50.042;19.224;2023-05-20T09:03:14;12.40;;;8.50;;
75246;SDS011;63844;50.042;19.224;2023-05-20T09:08:07;13.10;;;8.40;;
75246;SDS011;63844;50.042;19.224;2023-05-20T09:10:35;13.30;;;8.50;;
75246;SDS011;63844;50.042;19.224;2023-05-20T09:13:04;15.50;;;9.90;;
75246;SDS011;63844;50.042;19.224;2023-05-20T09:15:35;14.30;;;8.90;;
75246;SDS011;63844;50.042;19.224;2023-05-20T09:18:02;16.50;;;10.60;;
75246;SDS011;63844;50.042;19.224;2023-05-20T09:20:35;14.80;;;9.00;;
75246;SDS011;63844;50.042;19.224;2023-05-20T09:23:06;15.20;;;9.40;;
75246;SDS011;63844;50.042;19.224;2023-05-20T09:25:34;15.30;;;10.90;;
75246;SDS011;63844;50.042;19.224;2023-05-20T09:28:08;16.30;;;10.10;;
75246;SDS011;63844;50.042;19.224;2023-05-20T09:30:35;14.80;;;8.80;;
75246;SDS011;63844;50.042;19.224;2023-05-20T09:33:02;12.50;;;7.90;;
75246;SDS011;63844;50.042;19.224;2023-05-20T09:35:30;13.50;;;8.90;;
75246;SDS011;63844;50.042;19.224;2023-05-20T09:38:01;16.90;;;9.90;;
75246;SDS011;63844;50.042;19.224;2023-05-20T09:40:30;15.40;;;9.20;;
75246;SDS011;63844;50.042;19.224;2023-05-20T09:43:03;13.50;;;8.00;;
75246;SDS011;63844;50.042;19.224;2023-05-20T09:45:33;12.40;;;8.00;;
75246;SDS011;63844;50.042;19.224;2023-05-20T09:48:00;13.70;;;9.10;;
75246;SDS011;63844;50.042;19.224;2023-05-20T09:50:27;15.50;;;9.70;;
75246;SDS011;63844;50.042;19.224;2023-05-20T09:52:55;13.20;;;8.60;;
75246;SDS011;63844;50.042;19.224;2023-05-20T09:55:22;17.70;;;9.70;;
75246;SDS011;63844;50.042;19.224;2023-05-20T09:57:50;14.50;;;8.90;;
75246;SDS011;63844;50.042;19.224;2023-05-20T10:00:18;14.10;;;9.00;;
75246;SDS011;63844;50.042;19.224;2023-05-20T10:02:48;16.50;;;10.00;;
75246;SDS011;63844;50.042;19.224;2023-05-20T10:10:57;14.10;;;9.20;;
75246;SDS011;63844;50.042;19.224;2023-05-20T10:19:27;17.40;;;10.50;;
75246;SDS011;63844;50.042;19.224;2023-05-20T10:21:56;23.60;;;13.40;;
75246;SDS011;63844;50.042;19.224;2023-05-20T10:24:29;17.80;;;10.50;;
75246;SDS011;63844;50.042;19.224;2023-05-20T10:27:01;54.20;;;13.90;;
75246;SDS011;63844;50.042;19.224;2023-05-20T10:29:29;43.10;;;14.40;;
75246;SDS011;63844;50.042;19.224;2023-05-20T10:34:46;88.70;;;17.30;;
75246;SDS011;63844;50.042;19.224;2023-05-20T10:37:22;21.60;;;11.50;;
75246;SDS011;63844;50.042;19.224;2023-05-20T10:39:50;22.00;;;10.80;;
75246;SDS011;63844;50.042;19.224;2023-05-20T10:42:26;24.10;;;12.70;;
75246;SDS011;63844;50.042;19.224;2023-05-20T10:44:54;15.80;;;10.60;;
75246;SDS011;63844;50.042;19.224;2023-05-20T10:47:21;16.50;;;11.00;;
75246;SDS011;63844;50.042;19.224;2023-05-20T10:49:47;21.00;;;11.60;;
75246;SDS011;63844;50.042;19.224;2023-05-20T10:52:14;21.60;;;13.20;;
75246;SDS011;63844;50.042;19.224;2023-05-20T10:54:43;22.60;;;13.10;;
75246;SDS011;63844;50.042;19.224;2023-05-20T10:57:19;24.60;;;14.70;;
75246;SDS011;63844;50.042;19.224;2023-05-20T10:59:46;21.10;;;13.10;;
75246;SDS011;63844;50.042;19.224;2023-05-20T11:02:16;22.10;;;13.90;;
75246;SDS011;63844;50.042;19.224;2023-05-20T11:04:44;25.60;;;13.60;;
75246;SDS011;63844;50.042;19.224;2023-05-20T11:07:12;21.40;;;13.00;;
75246;SDS011;63844;50.042;19.224;2023-05-20T11:09:38;26.50;;;14.50;;
75246;SDS011;63844;50.042;19.224;2023-05-20T11:12:05;19.80;;;12.40;;
75246;SDS011;63844;50.042;19.224;2023-05-20T11:14:31;24.50;;;13.90;;
75246;SDS011;63844;50.042;19.224;2023-05-20T11:16:58;22.50;;;14.20;;
75246;SDS011;63844;50.042;19.224;2023-05-20T11:19:25;22.00;;;13.70;;
75246;SDS011;63844;50.042;19.224;2023-05-20T11:21:52;22.00;;;14.70;;
75246;SDS011;63844;50.042;19.224;2023-05-20T11:24:23;23.60;;;15.20;;
75246;SDS011;63844;50.042;19.224;2023-05-20T11:26:52;22.20;;;13.00;;
75246;SDS011;63844;50.042;19.224;2023-05-20T11:29:22;25.80;;;16.00;;
75246;SDS011;63844;50.042;19.224;2023-05-20T11:31:49;20.50;;;14.00;;
75246;SDS011;63844;50.042;19.224;2023-05-20T11:34:18;20.30;;;13.20;;
75246;SDS011;63844;50.042;19.224;2023-05-20T11:36:47;20.30;;;13.80;;
75246;SDS011;63844;50.042;19.224;2023-05-20T11:39:16;22.40;;;14.20;;
75246;SDS011;63844;50.042;19.224;2023-05-20T11:41:42;17.40;;;12.60;;
75246;SDS011;63844;50.042;19.224;2023-05-20T11:44:09;22.40;;;14.20;;
75246;SDS011;63844;50.042;19.224;2023-05-20T11:46:40;25.30;;;13.90;;
75246;SDS011;63844;50.042;19.224;2023-05-20T11:49:07;24.10;;;15.60;;
75246;SDS011;63844;50.042;19.224;2023-05-20T11:51:34;21.90;;;14.70;;
75246;SDS011;63844;50.042;19.224;2023-05-20T11:54:01;20.70;;;12.70;;
75246;SDS011;63844;50.042;19.224;2023-05-20T11:56:29;24.90;;;15.00;;
75246;SDS011;63844;50.042;19.224;2023-05-20T11:58:56;20.40;;;12.80;;
75246;SDS011;63844;50.042;19.224;2023-05-20T12:01:24;21.50;;;13.40;;
75246;SDS011;63844;50.042;19.224;2023-05-20T12:03:51;24.20;;;15.90;;
75246;SDS011;63844;50.042;19.224;2023-05-20T12:06:17;24.10;;;15.00;;
75246;SDS011;63844;50.042;19.224;2023-05-20T12:08:44;22.30;;;13.20;;
75246;SDS011;63844;50.042;19.224;2023-05-20T12:11:12;19.70;;;14.30;;
75246;SDS011;63844;50.042;19.224;2023-05-20T12:13:39;22.20;;;14.70;;
75246;SDS011;63844;50.042;19.224;2023-05-20T12:16:05;18.30;;;12.90;;
75246;SDS011;63844;50.042;19.224;2023-05-20T12:18:32;21.00;;;14.20;;
75246;SDS011;63844;50.042;19.224;2023-05-20T12:20:59;19.90;;;12.80;;
75246;SDS011;63844;50.042;19.224;2023-05-20T12:23:26;20.90;;;13.70;;
75246;SDS011;63844;50.042;19.224;2023-05-20T12:25:54;19.70;;;14.50;;
75246;SDS011;63844;50.042;19.224;2023-05-20T12:28:20;18.50;;;13.60;;
75246;SDS011;63844;50.042;19.224;2023-05-20T12:30:47;21.10;;;14.20;;
75246;SDS011;63844;50.042;19.224;2023-05-20T12:33:13;19.20;;;12.60;;
75246;SDS011;63844;50.042;19.224;2023-05-20T12:35:40;19.00;;;13.40;;
75246;SDS011;63844;50.042;19.224;2023-05-20T12:38:08;19.40;;;13.90;;
75246;SDS011;63844;50.042;19.224;2023-05-20T12:40:35;23.10;;;14.70;;
75246;SDS011;63844;50.042;19.224;2023-05-20T12:43:02;21.90;;;14.50;;
75246;SDS011;63844;50.042;19.224;2023-05-20T12:45:30;63.50;;;18.60;;
75246;SDS011;63844;50.042;19.224;2023-05-20T12:47:56;22.50;;;13.80;;
75246;SDS011;63844;50.042;19.224;2023-05-20T12:50:23;19.10;;;13.10;;
75246;SDS011;63844;50.042;19.224;2023-05-20T12:52:50;17.20;;;14.00;;
75246;SDS011;63844;50.042;19.224;2023-05-20T12:55:17;19.20;;;15.00;;
75246;SDS011;63844;50.042;19.224;2023-05-20T12:57:44;16.50;;;13.00;;
75246;SDS011;63844;50.042;19.224;2023-05-20T13:00:11;18.20;;;11.90;;
75246;SDS011;63844;50.042;19.224;2023-05-20T13:02:40;19.60;;;12.80;;
75246;SDS011;63844;50.042;19.224;2023-05-20T13:05:07;20.60;;;14.00;;
75246;SDS011;63844;50.042;19.224;2023-05-20T13:07:34;18.50;;;14.00;;
75246;SDS011;63844;50.042;19.224;2023-05-20T13:10:01;18.60;;;13.00;;
75246;SDS011;63844;50.042;19.224;2023-05-20T13:12:28;16.60;;;11.50;;
75246;SDS011;63844;50.042;19.224;2023-05-20T13:14:54;21.10;;;13.00;;
75246;SDS011;63844;50.042;19.224;2023-05-20T13:17:21;26.80;;;12.90;;
75246;SDS011;63844;50.042;19.224;2023-05-20T13:19:47;17.70;;;12.50;;
75246;SDS011;63844;50.042;19.224;2023-05-20T13:22:14;18.00;;;13.70;;
75246;SDS011;63844;50.042;19.224;2023-05-20T13:24:40;16.90;;;13.00;;
75246;SDS011;63844;50.042;19.224;2023-05-20T13:27:06;14.90;;;12.00;;
75246;SDS011;63844;50.042;19.224;2023-05-20T13:29:33;17.20;;;12.40;;
75246;SDS011;63844;50.042;19.224;2023-05-20T13:31:59;17.60;;;12.80;;
75246;SDS011;63844;50.042;19.224;2023-05-20T13:34:26;16.40;;;12.60;;
75246;SDS011;63844;50.042;19.224;2023-05-20T13:36:52;14.00;;;10.30;;
75246;SDS011;63844;50.042;19.224;2023-05-20T13:39:19;17.30;;;12.80;;
75246;SDS011;63844;50.042;19.224;2023-05-20T13:41:45;14.80;;;12.80;;
75246;SDS011;63844;50.042;19.224;2023-05-20T13:44:12;16.80;;;11.80;;
75246;SDS011;63844;50.042;19.224;2023-05-20T13:46:38;14.30;;;11.60;;
75246;SDS011;63844;50.042;19.224;2023-05-20T13:49:05;17.30;;;13.30;;
75246;SDS011;63844;50.042;19.224;2023-05-20T13:51:31;15.20;;;11.80;;
75246;SDS011;63844;50.042;19.224;2023-05-20T13:53:57;16.70;;;12.30;;
75246;SDS011;63844;50.042;19.224;2023-05-20T13:56:24;12.90;;;10.60;;
75246;SDS011;63844;50.042;19.224;2023-05-20T13:58:50;14.10;;;12.10;;
75246;SDS011;63844;50.042;19.224;2023-05-20T14:01:17;13.60;;;11.10;;
75246;SDS011;63844;50.042;19.224;2023-05-20T14:03:44;13.30;;;11.40;;
75246;SDS011;63844;50.042;19.224;2023-05-20T14:06:10;14.40;;;11.30;;
75246;SDS011;63844;50.042;19.224;2023-05-20T14:08:37;13.30;;;11.70;;
75246;SDS011;63844;50.042;19.224;2023-05-20T14:11:03;18.50;;;13.10;;
75246;SDS011;63844;50.042;19.224;2023-05-20T14:13:30;16.30;;;12.30;;
75246;SDS011;63844;50.042;19.224;2023-05-20T14:15:56;14.70;;;12.10;;
75246;SDS011;63844;50.042;19.224;2023-05-20T14:18:23;14.20;;;11.40;;
75246;SDS011;63844;50.042;19.224;2023-05-20T14:20:49;15.80;;;13.10;;
75246;SDS011;63844;50.042;19.224;2023-05-20T14:23:16;15.30;;;12.00;;
75246;SDS011;63844;50.042;19.224;2023-05-20T14:25:42;16.00;;;14.30;;
75246;SDS011;63844;50.042;19.224;2023-05-20T14:28:08;13.20;;;10.90;;
75246;SDS011;63844;50.042;19.224;2023-05-20T14:30:35;16.20;;;11.90;;
75246;SDS011;63844;50.042;19.224;2023-05-20T14:33:02;15.50;;;11.90;;
75246;SDS011;63844;50.042;19.224;2023-05-20T14:35:28;14.70;;;12.30;;
75246;SDS011;63844;50.042;19.224;2023-05-20T14:37:55;14.50;;;11.80;;
75246;SDS011;63844;50.042;19.224;2023-05-20T14:45:52;14.20;;;11.00;;
75246;SDS011;63844;50.042;19.224;2023-05-20T14:48:18;11.70;;;9.70;;
75246;SDS011;63844;50.042;19.224;2023-05-20T14:50:45;14.20;;;10.20;;
75246;SDS011;63844;50.042;19.224;2023-05-20T14:53:11;14.90;;;11.00;;
75246;SDS011;63844;50.042;19.224;2023-05-20T14:55:38;13.90;;;12.00;;
75246;SDS011;63844;50.042;19.224;2023-05-20T14:58:04;10.70;;;9.60;;
75246;SDS011;63844;50.042;19.224;2023-05-20T15:00:31;13.80;;;10.50;;
75246;SDS011;63844;50.042;19.224;2023-05-20T15:02:57;11.90;;;10.40;;
75246;SDS011;63844;50.042;19.224;2023-05-20T15:05:24;14.20;;;11.30;;
75246;SDS011;63844;50.042;19.224;2023-05-20T15:07:50;13.60;;;11.90;;
75246;SDS011;63844;50.042;19.224;2023-05-20T15:10:17;16.50;;;11.60;;
75246;SDS011;63844;50.042;19.224;2023-05-20T15:12:43;14.60;;;11.00;;
75246;SDS011;63844;50.042;19.224;2023-05-20T15:15:10;12.60;;;10.80;;
75246;SDS011;63844;50.042;19.224;2023-05-20T15:17:36;11.20;;;9.90;;
75246;SDS011;63844;50.042;19.224;2023-05-20T15:20:03;13.40;;;12.00;;
75246;SDS011;63844;50.042;19.224;2023-05-20T15:22:30;13.60;;;10.70;;
75246;SDS011;63844;50.042;19.224;2023-05-20T15:24:57;13.60;;;12.10;;
75246;SDS011;63844;50.042;19.224;2023-05-20T15:27:23;12.80;;;10.70;;